Time;durP1;ratioP1;P1;durP2;ratioP2;P2;SDS_P1;SDS_P2;PMS_P1;PMS_P2;Temp;Humidity;BMP_temperature;BMP_pressure;BME280_temperature;BME280_humidity;BME280_pressure;Samples;Min_cycle;Max_cycle;Signal;HPM_P1;HPM_P2
2023/12/17 00:02:03;;;;;;;25.53;15.60;;;8.30;99.90;;;;;;5012104;28;20563;-81
2023/12/17 00:04:30;;;;;;;20.03;14.07;;;8.30;99.90;;;;;;5007747;28;20231;-81
2023/12/17 00:06:57;;;;;;;22.43;15.00;;;8.30;99.90;;;;;;5032073;28;20257;-82
2023/12/17 00:09:23;;;;;;;21.70;15.00;;;8.40;99.90;;;;;;5030386;28;20251;-81
2023/12/17 00:11:50;;;;;;;21.47;15.03;;;8.40;99.90;;;;;;5014402;28;20227;-81
2023/12/17 00:14:18;;;;;;;19.83;13.80;;;8.30;99.90;;;;;;5035682;28;20580;-81
2023/12/17 00:16:45;;;;;;;21.40;13.40;;;8.40;99.90;;;;;;5015132;28;20227;-81
2023/12/17 00:19:12;;;;;;;19.73;13.67;;;8.40;99.90;;;;;;5016938;28;20220;-81
2023/12/17 00:21:39;;;;;;;21.23;13.97;;;8.40;99.90;;;;;;5038800;28;20228;-81
2023/12/17 00:24:06;;;;;;;20.03;14.50;;;8.40;99.90;;;;;;5032697;28;20290;-81
2023/12/17 00:26:33;;;;;;;17.60;13.07;;;8.50;99.90;;;;;;5018437;28;20439;-81
2023/12/17 00:29:00;;;;;;;16.87;12.93;;;8.50;99.90;;;;;;5011525;28;20317;-81
2023/12/17 00:31:28;;;;;;;18.17;13.07;;;8.50;99.90;;;;;;5029877;28;20678;-81
2023/12/17 00:33:55;;;;;;;18.20;13.00;;;8.50;99.90;;;;;;5034679;28;20337;-81
2023/12/17 00:36:21;;;;;;;18.40;13.27;;;8.50;99.90;;;;;;5012426;28;20981;-81
2023/12/17 00:38:48;;;;;;;21.60;13.37;;;8.50;99.90;;;;;;5015582;28;20236;-81
2023/12/17 00:41:15;;;;;;;18.17;12.60;;;8.50;99.90;;;;;;5015998;28;20222;-81
2023/12/17 00:43:43;;;;;;;18.40;12.20;;;8.50;99.90;;;;;;5033108;28;20241;-80
2023/12/17 00:46:10;;;;;;;17.53;12.23;;;8.50;99.90;;;;;;5016048;28;20242;-81
2023/12/17 00:48:38;;;;;;;16.33;12.00;;;8.50;99.90;;;;;;5029665;28;20216;-81
2023/12/17 00:51:10;;;;;;;16.53;12.00;;;8.60;99.90;;;;;;5033080;28;20295;-82
2023/12/17 00:53:37;;;;;;;19.37;12.70;;;8.60;99.90;;;;;;5028415;28;20733;-82
2023/12/17 00:56:04;;;;;;;16.83;11.53;;;8.60;99.90;;;;;;5027062;28;20234;-82
2023/12/17 00:58:31;;;;;;;15.80;11.33;;;8.60;99.90;;;;;;5000151;28;20291;-81
2023/12/17 01:00:58;;;;;;;18.40;12.37;;;8.60;99.90;;;;;;5010416;28;20311;-81
2023/12/17 01:03:24;;;;;;;16.67;10.43;;;8.60;99.90;;;;;;5010558;28;20253;-82
2023/12/17 01:05:52;;;;;;;18.53;11.30;;;8.60;99.90;;;;;;5007878;28;20322;-82
2023/12/17 01:08:19;;;;;;;15.17;10.90;;;8.60;99.90;;;;;;5018910;28;20786;-82
2023/12/17 01:10:46;;;;;;;15.97;10.70;;;8.60;99.90;;;;;;5008916;28;20239;-81
2023/12/17 01:13:12;;;;;;;14.57;10.07;;;8.60;99.90;;;;;;5019312;28;20449;-81
2023/12/17 01:15:39;;;;;;;15.33;10.47;;;8.60;99.90;;;;;;5006193;28;20227;-81
2023/12/17 01:18:06;;;;;;;13.70;9.67;;;8.70;99.90;;;;;;5002409;28;20648;-81
2023/12/17 01:20:33;;;;;;;14.50;10.57;;;8.70;99.90;;;;;;5019535;28;20234;-81
2023/12/17 01:23:01;;;;;;;18.43;10.73;;;8.70;99.90;;;;;;5008320;28;20326;-81
2023/12/17 01:25:28;;;;;;;14.03;10.33;;;8.70;99.90;;;;;;5007789;28;20232;-81
2023/12/17 01:27:54;;;;;;;12.83;9.47;;;8.70;99.90;;;;;;5007613;28;20459;-82
2023/12/17 01:30:21;;;;;;;15.00;9.97;;;8.70;99.90;;;;;;4996883;28;20223;-82
2023/12/17 01:32:48;;;;;;;14.40;9.53;;;8.70;99.90;;;;;;5021850;28;20223;-81
2023/12/17 01:35:15;;;;;;;12.03;9.13;;;8.70;99.90;;;;;;5028423;28;20601;-81
2023/12/17 01:37:42;;;;;;;14.83;9.60;;;8.70;99.90;;;;;;5027067;28;20486;-81
2023/12/17 01:40:11;;;;;;;13.73;9.30;;;8.70;99.90;;;;;;5024463;28;20570;-81
2023/12/17 01:42:38;;;;;;;13.20;9.50;;;8.70;99.90;;;;;;5027997;28;20658;-81
2023/12/17 01:45:06;;;;;;;13.63;9.27;;;8.70;99.90;;;;;;5023840;28;20323;-81
2023/12/17 01:47:33;;;;;;;12.03;8.87;;;8.70;99.90;;;;;;5022767;28;20230;-81
2023/12/17 01:50:00;;;;;;;15.37;9.27;;;8.70;99.90;;;;;;5008902;28;20226;-81
2023/12/17 01:52:27;;;;;;;10.50;7.93;;;8.70;99.90;;;;;;4993720;28;20316;-82
2023/12/17 01:54:54;;;;;;;12.47;9.47;;;8.70;99.90;;;;;;5007947;28;20237;-81
2023/12/17 01:57:22;;;;;;;11.57;9.13;;;8.70;99.90;;;;;;5013673;28;20230;-82
2023/12/17 01:59:49;;;;;;;12.40;8.53;;;8.70;99.90;;;;;;5025752;28;20997;-82
2023/12/17 02:02:16;;;;;;;12.10;9.27;;;8.70;99.90;;;;;;5007730;28;20293;-81
2023/12/17 02:04:43;;;;;;;12.00;9.43;;;8.80;99.90;;;;;;5014704;28;20342;-81
2023/12/17 02:07:10;;;;;;;12.13;9.07;;;8.70;99.90;;;;;;4986892;28;20268;-81
2023/12/17 02:09:37;;;;;;;11.97;8.07;;;8.80;99.90;;;;;;4995360;28;20225;-81
2023/12/17 02:12:04;;;;;;;13.40;9.27;;;8.80;99.90;;;;;;5012678;28;20761;-81
2023/12/17 02:14:32;;;;;;;10.83;8.03;;;8.70;99.90;;;;;;5006156;28;20223;-81
2023/12/17 02:16:59;;;;;;;10.93;8.03;;;8.80;99.90;;;;;;4999911;28;20307;-81
2023/12/17 02:19:26;;;;;;;13.60;8.50;;;8.80;99.90;;;;;;5010035;28;20804;-82
2023/12/17 02:21:52;;;;;;;10.63;8.47;;;8.80;99.90;;;;;;5004908;28;20238;-81
2023/12/17 02:24:21;;;;;;;13.60;8.30;;;8.70;99.90;;;;;;5013634;28;20802;-82
2023/12/17 02:26:47;;;;;;;11.13;8.00;;;8.80;99.90;;;;;;5002141;28;20317;-82
2023/12/17 02:29:14;;;;;;;10.17;7.63;;;8.80;99.90;;;;;;4985095;28;20233;-81
2023/12/17 02:31:41;;;;;;;10.70;7.53;;;8.80;99.90;;;;;;5008579;28;20247;-81
2023/12/17 02:34:07;;;;;;;11.27;7.97;;;8.80;99.90;;;;;;4986879;28;20316;-82
2023/12/17 02:36:34;;;;;;;13.10;7.60;;;8.70;99.90;;;;;;5033127;28;20249;-82
2023/12/17 02:39:02;;;;;;;12.73;7.53;;;8.80;99.90;;;;;;5022946;28;20227;-82
2023/12/17 02:41:30;;;;;;;10.77;7.03;;;8.80;99.90;;;;;;5029979;28;20963;-82
2023/12/17 02:43:57;;;;;;;8.37;7.00;;;8.70;99.90;;;;;;5025939;28;20272;-81
2023/12/17 02:46:24;;;;;;;11.53;7.07;;;8.80;99.90;;;;;;5032606;28;20315;-80
2023/12/17 02:48:51;;;;;;;10.03;6.80;;;8.80;99.90;;;;;;5014375;28;20260;-81
2023/12/17 02:51:18;;;;;;;10.90;7.00;;;8.80;99.90;;;;;;5021295;28;20286;-80
2023/12/17 02:53:45;;;;;;;10.37;6.53;;;8.80;99.90;;;;;;5009418;28;20298;-80
2023/12/17 02:56:12;;;;;;;9.43;6.97;;;8.80;99.90;;;;;;5031828;28;20724;-81
2023/12/17 02:58:40;;;;;;;9.47;6.90;;;8.80;99.90;;;;;;5033070;28;20228;-81
2023/12/17 03:01:07;;;;;;;12.17;7.20;;;8.80;99.90;;;;;;5031077;28;20254;-82
2023/12/17 03:03:35;;;;;;;8.37;6.53;;;8.80;99.90;;;;;;5033267;28;20293;-81
2023/12/17 03:06:02;;;;;;;12.77;6.93;;;8.80;99.90;;;;;;5014060;28;20235;-80
2023/12/17 03:08:29;;;;;;;9.50;7.07;;;8.80;99.90;;;;;;5004785;28;20334;-80
2023/12/17 03:10:56;;;;;;;11.73;7.07;;;8.80;99.90;;;;;;5003228;28;20937;-81
2023/12/17 03:13:23;;;;;;;8.33;6.50;;;8.80;99.90;;;;;;5004635;28;20240;-81
2023/12/17 03:15:51;;;;;;;10.30;6.67;;;8.80;99.90;;;;;;5009254;28;20257;-81
2023/12/17 03:18:18;;;;;;;7.17;6.17;;;8.80;99.90;;;;;;4998795;28;20219;-81
2023/12/17 03:20:45;;;;;;;9.93;6.70;;;8.80;99.90;;;;;;5009827;28;20231;-81
2023/12/17 03:23:12;;;;;;;11.97;6.87;;;8.80;99.90;;;;;;5002776;28;20756;-82
2023/12/17 03:25:39;;;;;;;8.47;6.87;;;8.80;99.90;;;;;;5003363;28;20227;-81
2023/12/17 03:28:05;;;;;;;9.60;6.67;;;8.80;99.90;;;;;;5005270;28;20668;-81
2023/12/17 03:30:32;;;;;;;7.90;6.33;;;8.80;99.90;;;;;;5005596;28;20307;-81
2023/12/17 03:33:00;;;;;;;9.80;6.43;;;8.80;99.90;;;;;;5016254;28;20228;-81
2023/12/17 03:35:27;;;;;;;9.87;6.10;;;8.80;99.90;;;;;;4999758;28;20300;-81
2023/12/17 03:37:54;;;;;;;8.37;6.67;;;8.80;99.90;;;;;;5008976;28;20219;-81
2023/12/17 03:40:21;;;;;;;7.37;6.00;;;8.80;99.90;;;;;;5013065;28;20271;-81
2023/12/17 03:42:48;;;;;;;10.83;6.07;;;8.80;99.90;;;;;;5015836;28;20227;-81
2023/12/17 03:45:14;;;;;;;8.77;5.93;;;8.80;99.90;;;;;;5017582;28;20663;-81
2023/12/17 03:47:47;;;;;;;8.13;6.20;;;8.80;99.90;;;;;;5004641;28;20245;-80
2023/12/17 03:50:15;;;;;;;10.30;6.03;;;8.80;99.90;;;;;;4982139;28;20733;-80
2023/12/17 03:52:41;;;;;;;11.83;6.37;;;8.80;99.90;;;;;;4991566;28;20250;-81
2023/12/17 03:55:09;;;;;;;10.13;5.73;;;8.80;99.90;;;;;;5008004;28;20319;-81
2023/12/17 03:57:35;;;;;;;9.33;5.67;;;8.80;99.90;;;;;;5006314;28;21055;-81
2023/12/17 04:00:03;;;;;;;6.73;6.03;;;8.80;99.90;;;;;;5006338;28;20281;-80
2023/12/17 04:02:32;;;;;;;9.50;6.10;;;8.80;99.90;;;;;;5025354;28;20220;-81
2023/12/17 04:04:59;;;;;;;7.00;5.63;;;8.80;99.90;;;;;;5023840;28;20720;-81
2023/12/17 04:07:28;;;;;;;8.23;5.40;;;8.80;99.90;;;;;;5024269;28;20312;-80
2023/12/17 04:09:56;;;;;;;8.50;5.80;;;8.80;99.90;;;;;;5014660;28;20229;-82
2023/12/17 04:12:23;;;;;;;8.10;5.50;;;8.80;99.90;;;;;;5026272;28;20295;-81
2023/12/17 04:14:50;;;;;;;10.83;6.23;;;8.80;99.90;;;;;;5007000;28;20290;-81
2023/12/17 04:17:17;;;;;;;8.27;5.40;;;8.80;99.90;;;;;;5022065;28;20612;-81
2023/12/17 04:19:43;;;;;;;9.30;5.80;;;8.80;99.90;;;;;;5023151;28;20293;-81
2023/12/17 04:22:10;;;;;;;8.10;5.63;;;8.80;99.90;;;;;;5024486;28;20706;-81
2023/12/17 04:24:39;;;;;;;9.63;6.00;;;8.80;99.90;;;;;;5025119;28;20231;-81
2023/12/17 04:27:06;;;;;;;7.70;5.37;;;8.80;99.90;;;;;;5028097;28;20624;-81
2023/12/17 04:29:33;;;;;;;10.50;6.50;;;8.80;99.90;;;;;;5029581;28;20231;-80
2023/12/17 04:31:59;;;;;;;7.90;5.43;;;8.80;99.90;;;;;;5031604;28;20995;-81
2023/12/17 04:34:25;;;;;;;7.27;5.83;;;8.80;99.90;;;;;;5031406;28;20786;-81
2023/12/17 04:36:52;;;;;;;9.40;5.87;;;8.80;99.90;;;;;;5015065;28;20245;-81
2023/12/17 04:39:20;;;;;;;8.03;5.63;;;8.80;99.90;;;;;;5030451;28;20763;-81
2023/12/17 04:41:48;;;;;;;6.57;5.20;;;8.80;99.90;;;;;;5010542;28;20235;-81
2023/12/17 04:44:14;;;;;;;9.87;5.57;;;8.80;99.90;;;;;;5031501;28;20249;-81
2023/12/17 04:46:41;;;;;;;6.67;5.70;;;8.80;99.90;;;;;;5014356;28;20231;-81
2023/12/17 04:49:08;;;;;;;8.43;5.60;;;8.80;99.90;;;;;;5009381;28;20398;-82
2023/12/17 04:51:35;;;;;;;9.27;5.43;;;8.80;99.90;;;;;;5010200;28;20310;-83
2023/12/17 04:54:01;;;;;;;11.13;5.87;;;8.80;99.90;;;;;;5029183;28;20507;-82
2023/12/17 04:56:29;;;;;;;8.87;5.27;;;8.80;99.90;;;;;;5009913;28;20328;-82
2023/12/17 04:58:57;;;;;;;9.53;5.50;;;8.80;99.90;;;;;;5031863;28;20318;-82
2023/12/17 05:01:24;;;;;;;7.33;5.63;;;8.80;99.90;;;;;;5010014;28;20297;-81
2023/12/17 05:03:50;;;;;;;7.87;5.43;;;8.80;99.90;;;;;;5037045;28;20253;-81
2023/12/17 05:06:17;;;;;;;8.80;5.87;;;8.80;99.90;;;;;;5027404;28;20250;-81
2023/12/17 05:08:44;;;;;;;8.70;5.40;;;8.80;99.90;;;;;;5014097;28;20310;-81
2023/12/17 05:11:11;;;;;;;8.67;5.97;;;8.80;99.90;;;;;;5009114;28;20496;-80
2023/12/17 05:13:37;;;;;;;8.80;5.60;;;8.80;99.90;;;;;;5026210;28;20742;-80
2023/12/17 05:16:07;;;;;;;9.20;5.70;;;8.80;99.90;;;;;;5003174;28;20275;-80
2023/12/17 05:18:34;;;;;;;7.70;5.17;;;8.80;99.90;;;;;;5005053;28;20277;-80
2023/12/17 05:21:00;;;;;;;11.07;5.50;;;8.80;99.90;;;;;;4977119;28;20234;-80
2023/12/17 05:23:27;;;;;;;8.93;5.07;;;8.80;99.90;;;;;;5004502;28;20224;-80
2023/12/17 05:25:54;;;;;;;8.73;5.17;;;8.80;99.90;;;;;;4998242;28;20274;-82
2023/12/17 05:28:21;;;;;;;7.87;5.10;;;8.80;99.90;;;;;;5007328;28;20431;-81
2023/12/17 05:30:47;;;;;;;9.63;5.10;;;8.80;99.90;;;;;;5024188;28;20306;-81
2023/12/17 05:33:15;;;;;;;7.33;4.90;;;8.80;99.90;;;;;;5025413;28;20324;-81
2023/12/17 05:35:43;;;;;;;7.17;5.47;;;8.80;99.90;;;;;;5024305;28;20255;-82
2023/12/17 05:38:09;;;;;;;9.40;4.67;;;8.80;99.90;;;;;;5024246;28;20215;-81
2023/12/17 05:40:36;;;;;;;7.93;5.40;;;8.80;99.90;;;;;;5008761;28;20303;-81
2023/12/17 05:43:04;;;;;;;8.90;5.00;;;8.80;99.90;;;;;;5027573;28;20222;-81
2023/12/17 05:45:32;;;;;;;7.97;5.07;;;8.80;99.90;;;;;;5013956;28;20231;-81
2023/12/17 05:47:59;;;;;;;7.57;5.50;;;8.80;99.90;;;;;;5027082;28;20515;-81
2023/12/17 05:50:27;;;;;;;8.77;5.20;;;8.80;99.90;;;;;;5017227;28;20227;-81
2023/12/17 05:52:54;;;;;;;8.33;5.10;;;8.80;99.90;;;;;;5009462;28;20246;-81
2023/12/17 05:55:20;;;;;;;7.20;5.00;;;8.80;99.90;;;;;;5026223;28;20235;-82
2023/12/17 05:57:50;;;;;;;7.00;5.00;;;8.80;99.90;;;;;;5014206;28;20763;-82
2023/12/17 06:00:17;;;;;;;7.57;5.40;;;8.80;99.90;;;;;;5021617;28;20617;-81
2023/12/17 06:02:44;;;;;;;7.67;5.30;;;8.80;99.90;;;;;;5016069;28;20617;-81
2023/12/17 06:05:12;;;;;;;6.57;4.80;;;8.80;99.90;;;;;;5022426;28;20784;-80
2023/12/17 06:07:40;;;;;;;5.50;4.87;;;8.80;99.90;;;;;;5007815;28;20256;-81
2023/12/17 06:10:09;;;;;;;5.00;4.50;;;8.90;99.90;;;;;;5021359;28;20251;-81
2023/12/17 06:12:35;;;;;;;8.83;4.83;;;8.90;99.90;;;;;;5027542;28;20289;-81
2023/12/17 06:15:02;;;;;;;6.63;5.00;;;8.90;99.90;;;;;;5024217;28;20314;-82
2023/12/17 06:17:29;;;;;;;7.23;5.03;;;8.90;99.90;;;;;;5024100;28;20242;-81
2023/12/17 06:19:55;;;;;;;5.77;5.00;;;8.90;99.90;;;;;;5028993;28;20243;-81
2023/12/17 06:22:24;;;;;;;6.80;4.67;;;8.90;99.90;;;;;;5034699;28;20311;-81
2023/12/17 06:24:52;;;;;;;6.50;4.90;;;8.90;99.90;;;;;;5025635;28;20606;-81
2023/12/17 06:27:19;;;;;;;5.53;4.93;;;8.90;99.90;;;;;;5022136;28;20221;-81
2023/12/17 06:29:48;;;;;;;7.57;4.50;;;8.90;99.90;;;;;;5026711;28;20269;-82
2023/12/17 06:32:15;;;;;;;5.73;4.47;;;8.90;99.90;;;;;;5034199;28;20227;-82
2023/12/17 06:34:42;;;;;;;6.87;4.70;;;8.90;99.90;;;;;;5021575;28;20301;-82
2023/12/17 06:37:10;;;;;;;6.07;4.17;;;8.90;99.90;;;;;;5027281;28;20282;-81
2023/12/17 06:39:40;;;;;;;7.77;4.40;;;8.90;99.90;;;;;;5029618;28;20244;-80
2023/12/17 06:42:09;;;;;;;6.27;4.20;;;8.90;99.90;;;;;;5028179;28;20231;-80
2023/12/17 06:44:36;;;;;;;6.27;4.17;;;8.90;99.90;;;;;;5002941;28;20252;-80
2023/12/17 06:47:03;;;;;;;6.73;4.73;;;8.90;99.90;;;;;;5005620;28;20234;-80
2023/12/17 06:49:31;;;;;;;5.80;4.07;;;8.90;99.90;;;;;;5003673;28;20309;-80
2023/12/17 06:51:59;;;;;;;6.33;4.83;;;8.90;99.90;;;;;;5005866;28;20233;-80
2023/12/17 06:54:26;;;;;;;7.73;4.23;;;8.90;99.90;;;;;;5005666;28;20238;-80
2023/12/17 06:56:53;;;;;;;6.03;3.93;;;8.90;99.90;;;;;;5006527;28;20331;-80
2023/12/17 06:59:22;;;;;;;5.93;3.70;;;8.90;99.90;;;;;;5023829;28;20231;-80
2023/12/17 07:01:49;;;;;;;7.27;4.70;;;8.90;99.90;;;;;;5032573;28;20227;-80
2023/12/17 07:04:15;;;;;;;9.10;4.30;;;8.90;99.90;;;;;;5022209;28;20266;-81
2023/12/17 07:06:42;;;;;;;7.50;4.10;;;8.90;99.90;;;;;;5026404;28;20270;-82
2023/12/17 07:09:10;;;;;;;6.47;4.50;;;8.90;99.90;;;;;;5028284;28;20320;-83
2023/12/17 07:11:36;;;;;;;4.47;4.07;;;8.90;99.90;;;;;;5012666;28;20798;-81
2023/12/17 07:14:03;;;;;;;7.03;4.17;;;8.90;99.90;;;;;;5007721;28;20223;-82
2023/12/17 07:16:32;;;;;;;5.23;4.20;;;8.90;99.90;;;;;;5024043;28;21361;-81
2023/12/17 07:18:59;;;;;;;6.63;4.37;;;8.90;99.90;;;;;;5008563;28;20322;-81
2023/12/17 07:21:26;;;;;;;6.03;4.10;;;8.90;99.90;;;;;;5009032;28;20700;-81
2023/12/17 07:23:53;;;;;;;6.07;4.20;;;8.90;99.90;;;;;;5008106;28;20255;-81
2023/12/17 07:26:20;;;;;;;6.13;4.07;;;8.90;99.90;;;;;;5024167;28;20230;-81
2023/12/17 07:28:46;;;;;;;8.50;4.37;;;9.00;99.90;;;;;;5008981;28;20254;-82
2023/12/17 07:31:14;;;;;;;6.37;3.80;;;9.00;99.90;;;;;;5023789;28;20227;-81
2023/12/17 07:33:42;;;;;;;6.00;3.80;;;9.00;99.90;;;;;;5007199;28;20247;-81
2023/12/17 07:36:09;;;;;;;5.80;4.20;;;9.00;99.90;;;;;;5023657;28;20295;-80
2023/12/17 07:38:36;;;;;;;12.30;5.03;;;9.00;99.90;;;;;;5006515;28;20742;-81
2023/12/17 07:41:03;;;;;;;5.60;4.43;;;9.00;99.90;;;;;;5027263;28;20303;-81
2023/12/17 07:43:30;;;;;;;7.37;4.40;;;9.00;99.90;;;;;;5028766;28;20231;-83
2023/12/17 07:45:57;;;;;;;7.70;4.37;;;9.00;99.90;;;;;;5018632;28;20270;-81
2023/12/17 07:48:24;;;;;;;5.27;4.23;;;9.00;99.90;;;;;;5021213;28;20811;-80
2023/12/17 07:50:53;;;;;;;6.43;4.67;;;9.00;99.90;;;;;;5028646;28;20256;-81
2023/12/17 07:53:20;;;;;;;6.53;4.63;;;9.00;99.90;;;;;;5030098;28;20508;-80
2023/12/17 07:55:47;;;;;;;7.63;4.77;;;9.00;99.90;;;;;;5027538;28;20311;-82
2023/12/17 07:58:14;;;;;;;6.63;4.70;;;9.00;99.90;;;;;;5014918;28;20319;-80
2023/12/17 08:00:40;;;;;;;7.23;4.80;;;9.00;99.90;;;;;;5023842;28;20227;-82
2023/12/17 08:03:07;;;;;;;8.67;4.47;;;9.00;99.90;;;;;;5004626;28;20284;-82
2023/12/17 08:05:34;;;;;;;8.20;4.40;;;9.00;99.90;;;;;;5026945;28;20234;-81
2023/12/17 08:08:02;;;;;;;6.50;4.10;;;9.00;99.90;;;;;;5009222;28;20314;-82
2023/12/17 08:10:29;;;;;;;6.73;4.80;;;9.00;99.90;;;;;;5023824;28;20567;-81
2023/12/17 08:12:56;;;;;;;8.87;5.27;;;9.00;99.90;;;;;;5027204;28;20227;-82
2023/12/17 08:15:23;;;;;;;9.30;5.10;;;9.10;99.90;;;;;;5007786;28;20235;-82
2023/12/17 08:17:49;;;;;;;7.43;5.10;;;9.10;99.90;;;;;;5008440;28;20251;-82
2023/12/17 08:20:17;;;;;;;7.23;5.40;;;9.10;99.90;;;;;;5008743;28;20267;-81
2023/12/17 08:22:44;;;;;;;11.17;5.53;;;9.10;99.90;;;;;;5017797;28;20228;-81
2023/12/17 08:25:12;;;;;;;7.73;6.00;;;9.10;99.90;;;;;;5007703;28;20225;-82
2023/12/17 08:27:39;;;;;;;9.03;6.20;;;9.10;99.90;;;;;;5009812;28;20228;-82
2023/12/17 08:30:07;;;;;;;9.73;6.30;;;9.10;99.90;;;;;;5003492;28;20323;-82
2023/12/17 08:32:34;;;;;;;8.63;6.70;;;9.10;99.90;;;;;;5007739;28;20669;-81
2023/12/17 08:35:02;;;;;;;8.70;6.97;;;9.10;99.90;;;;;;5027693;28;20235;-81
2023/12/17 08:37:29;;;;;;;8.73;6.97;;;9.10;99.90;;;;;;5004728;28;20236;-81
2023/12/17 08:39:56;;;;;;;10.03;7.10;;;9.20;99.90;;;;;;5011764;28;20228;-82
2023/12/17 08:42:24;;;;;;;10.70;6.97;;;9.20;99.90;;;;;;5009839;28;20706;-83
2023/12/17 08:44:51;;;;;;;9.20;6.50;;;9.20;99.90;;;;;;5009881;28;20625;-83
2023/12/17 08:47:18;;;;;;;9.60;7.17;;;9.20;99.90;;;;;;5026216;28;20234;-82
2023/12/17 08:49:45;;;;;;;9.33;6.33;;;9.20;99.90;;;;;;5011605;28;20633;-82
2023/12/17 08:52:12;;;;;;;8.67;7.30;;;9.20;99.90;;;;;;5008965;28;20750;-82
2023/12/17 08:54:39;;;;;;;8.57;6.50;;;9.20;99.90;;;;;;5011433;28;20221;-82
2023/12/17 08:57:06;;;;;;;11.20;6.63;;;9.20;99.90;;;;;;5008113;28;20954;-82
2023/12/17 08:59:34;;;;;;;10.73;6.60;;;9.30;99.90;;;;;;5006852;28;20293;-82
2023/12/17 09:02:01;;;;;;;10.07;6.90;;;9.30;99.90;;;;;;5005406;28;20310;-82
2023/12/17 09:04:28;;;;;;;8.33;6.40;;;9.30;99.90;;;;;;5026120;28;23564;-82
2023/12/17 09:06:54;;;;;;;8.73;6.53;;;9.30;99.90;;;;;;5017267;28;20277;-82
2023/12/17 09:09:21;;;;;;;8.93;6.33;;;9.30;99.90;;;;;;5029583;28;20227;-82
2023/12/17 09:11:48;;;;;;;10.37;6.70;;;9.30;99.90;;;;;;5027204;28;20648;-82
2023/12/17 09:14:15;;;;;;;10.03;6.10;;;9.30;99.90;;;;;;5011714;28;20228;-81
2023/12/17 09:16:44;;;;;;;8.60;5.90;;;9.40;99.90;;;;;;5036352;28;20241;-82
2023/12/17 09:19:10;;;;;;;9.47;5.83;;;9.40;99.90;;;;;;5028211;28;20230;-83
2023/12/17 09:21:37;;;;;;;11.73;6.10;;;9.40;99.90;;;;;;5012280;28;20732;-83
2023/12/17 09:24:05;;;;;;;8.77;6.30;;;9.40;99.90;;;;;;5030684;28;20270;-81
2023/12/17 09:26:32;;;;;;;9.83;6.23;;;9.50;99.90;;;;;;5028745;28;20221;-82
2023/12/17 09:28:59;;;;;;;8.70;6.10;;;9.50;99.90;;;;;;5025869;28;20250;-81
2023/12/17 09:31:26;;;;;;;12.57;6.60;;;9.50;99.90;;;;;;5013973;28;20229;-81
2023/12/17 09:33:54;;;;;;;9.30;6.43;;;9.50;99.90;;;;;;5002654;28;20229;-81
2023/12/17 09:36:22;;;;;;;9.97;6.17;;;9.50;99.90;;;;;;5009438;28;20236;-81
2023/12/17 09:38:49;;;;;;;8.43;6.70;;;9.50;99.90;;;;;;4997083;28;20226;-81
2023/12/17 09:41:16;;;;;;;9.67;6.37;;;9.50;99.90;;;;;;5000978;28;20225;-81
2023/12/17 09:43:43;;;;;;;8.77;6.83;;;9.50;99.90;;;;;;5008337;28;20251;-81
2023/12/17 09:46:10;;;;;;;9.13;6.33;;;9.50;99.90;;;;;;5006323;28;20224;-81
2023/12/17 09:48:37;;;;;;;9.13;6.43;;;9.50;99.90;;;;;;5024397;28;20228;-81
2023/12/17 09:51:10;;;;;;;8.83;6.07;;;9.50;99.90;;;;;;5005007;28;20382;-80
2023/12/17 09:53:37;;;;;;;9.13;6.07;;;9.50;99.90;;;;;;5018702;28;20258;-81
2023/12/17 09:56:04;;;;;;;9.07;6.30;;;9.50;99.90;;;;;;5014220;28;20238;-80
2023/12/17 09:58:31;;;;;;;10.17;6.70;;;9.60;99.90;;;;;;5013800;28;20273;-80
2023/12/17 10:00:58;;;;;;;10.43;6.63;;;9.60;99.90;;;;;;5020866;28;20224;-79
2023/12/17 10:03:25;;;;;;;10.63;6.83;;;9.60;99.90;;;;;;5015653;28;20228;-80
2023/12/17 10:05:53;;;;;;;9.63;7.00;;;9.60;99.90;;;;;;5018042;28;20286;-81
2023/12/17 10:08:21;;;;;;;9.30;6.33;;;9.60;99.90;;;;;;5024679;28;20347;-82
2023/12/17 10:10:48;;;;;;;8.67;6.97;;;9.60;99.90;;;;;;5000103;28;20706;-80
2023/12/17 10:13:19;;;;;;;9.87;8.47;;;9.60;99.90;;;;;;5000520;28;20311;-80
2023/12/17 10:15:48;;;;;;;8.53;7.40;;;9.60;99.90;;;;;;4992486;28;20240;-81
2023/12/17 10:18:15;;;;;;;10.27;7.73;;;9.60;99.90;;;;;;5001329;28;20947;-81
2023/12/17 10:20:42;;;;;;;12.20;9.00;;;9.60;99.90;;;;;;5015594;28;20224;-80
2023/12/17 10:23:09;;;;;;;12.47;9.93;;;9.60;99.90;;;;;;5003560;28;20223;-80
2023/12/17 10:25:37;;;;;;;11.27;10.10;;;9.60;99.90;;;;;;4989081;28;20256;-81
2023/12/17 10:28:05;;;;;;;12.67;11.47;;;9.60;99.90;;;;;;5004736;28;20237;-81
2023/12/17 10:30:33;;;;;;;14.70;11.80;;;9.70;99.90;;;;;;5028068;28;20229;-82
2023/12/17 10:33:02;;;;;;;14.37;12.30;;;9.70;99.90;;;;;;4991588;28;20248;-81
2023/12/17 10:35:30;;;;;;;15.73;12.47;;;9.70;99.90;;;;;;5004459;28;20239;-81
2023/12/17 10:38:00;;;;;;;14.00;12.47;;;9.70;99.90;;;;;;5026254;28;20243;-81
2023/12/17 10:40:27;;;;;;;16.03;12.57;;;9.70;99.90;;;;;;5000805;28;20221;-81
2023/12/17 10:42:56;;;;;;;13.90;12.50;;;9.70;99.90;;;;;;5015330;28;20229;-81
2023/12/17 10:45:24;;;;;;;14.17;12.37;;;9.70;99.90;;;;;;5032646;28;20898;-81
2023/12/17 10:47:53;;;;;;;15.00;12.57;;;9.70;99.90;;;;;;5016446;28;20229;-81
2023/12/17 10:50:21;;;;;;;16.30;13.93;;;9.70;99.90;;;;;;5002000;28;20267;-81
2023/12/17 10:52:48;;;;;;;14.57;13.17;;;9.70;99.90;;;;;;4997574;28;20335;-81
2023/12/17 10:55:15;;;;;;;15.83;13.40;;;9.70;99.90;;;;;;5002209;28;20286;-80
2023/12/17 10:57:45;;;;;;;17.13;14.40;;;9.70;99.90;;;;;;4998696;28;20229;-81
2023/12/17 11:00:18;;;;;;;16.70;14.97;;;9.70;99.90;;;;;;5012539;28;20225;-81
2023/12/17 11:02:46;;;;;;;16.20;14.50;;;9.70;99.90;;;;;;4996076;28;20331;-81
2023/12/17 11:05:13;;;;;;;16.90;15.13;;;9.70;99.90;;;;;;5018423;28;20421;-81
2023/12/17 11:07:40;;;;;;;17.03;14.20;;;9.70;99.90;;;;;;5024389;28;20323;-82
2023/12/17 11:10:10;;;;;;;14.53;13.03;;;9.60;99.90;;;;;;5018572;28;20229;-82
2023/12/17 11:12:37;;;;;;;14.83;12.97;;;9.60;99.90;;;;;;5005778;28;20231;-82
2023/12/17 11:15:04;;;;;;;13.23;11.53;;;9.60;99.90;;;;;;5022211;28;20671;-82
2023/12/17 11:17:33;;;;;;;11.97;10.83;;;9.70;99.90;;;;;;5021420;28;20273;-82
2023/12/17 11:20:02;;;;;;;12.47;11.00;;;9.60;99.90;;;;;;5003911;28;20298;-81
2023/12/17 11:22:29;;;;;;;12.77;10.10;;;9.70;99.90;;;;;;5019339;28;20282;-81
2023/12/17 11:24:57;;;;;;;10.60;9.27;;;9.60;99.90;;;;;;5017997;28;20225;-81
2023/12/17 11:27:25;;;;;;;11.03;9.70;;;9.60;99.90;;;;;;5021322;28;20247;-81
2023/12/17 11:29:53;;;;;;;10.87;9.40;;;9.60;99.90;;;;;;5004028;28;20259;-81
2023/12/17 11:32:21;;;;;;;11.37;9.83;;;9.60;99.90;;;;;;5004168;28;20747;-81
2023/12/17 11:34:50;;;;;;;10.93;9.60;;;9.60;99.90;;;;;;5003689;28;20311;-81
2023/12/17 11:37:18;;;;;;;10.50;8.87;;;9.60;99.90;;;;;;5019183;28;20236;-82
2023/12/17 11:39:47;;;;;;;10.30;9.30;;;9.60;99.90;;;;;;5024253;28;20230;-81
2023/12/17 11:42:14;;;;;;;11.97;9.77;;;9.60;99.90;;;;;;4999668;28;20236;-81
2023/12/17 11:44:44;;;;;;;10.20;9.23;;;9.60;99.90;;;;;;5012611;28;20224;-81
2023/12/17 11:47:11;;;;;;;11.93;8.90;;;9.60;99.90;;;;;;5005431;28;20240;-81
2023/12/17 11:49:38;;;;;;;10.63;9.10;;;9.70;99.90;;;;;;4991002;28;20228;-81
2023/12/17 11:52:13;;;;;;;11.90;9.33;;;9.70;99.90;;;;;;5014766;28;20236;-82
2023/12/17 11:54:40;;;;;;;10.33;8.40;;;9.70;99.90;;;;;;5023174;28;20564;-84
2023/12/17 11:57:19;;;;;;;8.83;7.93;;;9.70;99.90;;;;;;5024662;28;20633;-83
2023/12/17 11:59:46;;;;;;;10.83;8.13;;;9.70;99.90;;;;;;5015885;28;20234;-83
2023/12/17 12:02:15;;;;;;;8.60;7.30;;;9.70;99.90;;;;;;5013653;28;20217;-82
2023/12/17 12:04:42;;;;;;;7.87;7.07;;;9.70;99.90;;;;;;5017697;28;20256;-83
2023/12/17 12:07:11;;;;;;;7.27;6.43;;;9.70;99.90;;;;;;5028214;28;20782;-84
2023/12/17 12:09:38;;;;;;;9.57;7.13;;;9.70;99.90;;;;;;5043011;28;20235;-83
2023/12/17 12:12:16;;;;;;;11.67;7.60;;;9.70;99.90;;;;;;5037519;28;20221;-83
2023/12/17 12:14:45;;;;;;;9.00;6.73;;;9.80;99.90;;;;;;5023197;28;20227;-84
2023/12/17 12:17:39;;;;;;;6.80;6.13;;;9.80;99.90;;;;;;5014059;28;20708;-84
2023/12/17 12:20:09;;;;;;;8.23;6.30;;;9.90;99.90;;;;;;5024047;28;20726;-84
2023/12/17 12:22:39;;;;;;;8.03;5.50;;;9.90;99.90;;;;;;5012481;28;20311;-84
2023/12/17 12:25:06;;;;;;;10.10;5.93;;;9.90;99.90;;;;;;5017278;28;20251;-83
2023/12/17 12:27:33;;;;;;;6.40;5.50;;;10.00;99.90;;;;;;5033902;28;20225;-84
2023/12/17 12:30:00;;;;;;;9.20;6.00;;;10.00;99.90;;;;;;5032840;28;20359;-84
2023/12/17 12:32:28;;;;;;;8.50;6.10;;;10.00;99.90;;;;;;5007122;28;20594;-85
2023/12/17 12:34:55;;;;;;;7.27;5.60;;;10.00;99.90;;;;;;5019782;28;20248;-84
2023/12/17 12:37:32;;;;;;;7.97;6.20;;;10.00;99.90;;;;;;5010291;28;20230;-83
2023/12/17 12:40:01;;;;;;;7.97;6.03;;;10.00;99.90;;;;;;5025494;28;20315;-84
2023/12/17 12:42:28;;;;;;;11.60;6.77;;;10.00;99.90;;;;;;5032319;28;20231;-84
2023/12/17 12:44:55;;;;;;;8.07;6.40;;;10.00;99.90;;;;;;5008469;28;20757;-84
2023/12/17 12:47:23;;;;;;;10.83;6.73;;;10.00;99.90;;;;;;5011759;28;20399;-84
2023/12/17 12:49:49;;;;;;;9.07;6.63;;;9.90;99.90;;;;;;5031558;28;20712;-84
2023/12/17 12:52:17;;;;;;;7.83;6.90;;;9.90;99.90;;;;;;5024130;28;20218;-84